KDVN/DVN METAR and TAF weather

Enter ICAO airport designator
Station Type Date Time Source
KDVN METAR 2020/11/25 22:52 UTC NOAA

KDVN 252252Z AUTO 33010KT 10SM OVC008 06/04 A2981 RMK AO2 SLP095 T00610044


Station Type Date Time Source
KDVN Decoded METAR 2020/11/25 22:52 UTC NOAA

DAVENPORT MUNICIPAL AIRPORT, IA, United States (KDVN) 41-37N 90-35W 228M
Nov 25, 2020 - 05:52 PM EST / 2020.11.25 2252 UTC
Wind: from the NNW (330 degrees) at 12 MPH (10 KT):0
Visibility: 10 mile(s):0
Sky conditions: overcast
Temperature: 43.0 F (6.1 C)
Dew Point: 39.9 F (4.4 C)
Relative Humidity: 88%
Pressure (altimeter): 29.81 in. Hg (1009 hPa)
ob: KDVN 252252Z AUTO 33010KT 10SM OVC008 06/04 A2981 RMK AO2 SLP095 T00610044
cycle: 23

Station Type Date Time Source
KDVN TAF UTC NOAA

Error!

Example: see airport list